ACF weather

Brisbane Archerfield Airport
Brisbane, Queensland, Australia

Public forecast

Using degrees Celsius for public forecast. Weather courtesy of forecast.io.

Closest aviation weather report (METAR) to Brisbane Archerfield Airport

Closest report is Brisbane International Airport, 12.6 nm (23.3 km) NNE. Retrieved 2020/06/06 10:00 UTC (19 minutes ago):

YBBN 061000Z 00000KT 9999 FEW035 14/12 Q1022 NOSIG

Closest aviation forecast (TAF) to Brisbane Archerfield Airport

Closest forecast is Brisbane International Airport, 12.6 nm (23.3 km) NNE. Retrieved 2020/06/06 06:54 UTC (3 hours ago):

TAF YBBN 060534Z 0606/0712 08009KT 9999 FEW040 FM061000 20006KT 9999 FEW030 FM070300 08009KT 9999 FEW040 FM071000 20006KT 9999 FEW030